MAPA DE AEROPUERTO

INFORMACIÓN METAR y TAF


Deprecated: The each() function is deprecated. This message will be suppressed on further calls in /home/customer/www/clickair-va.com/public_html/VAM/vam/helpers/get_metar.php on line 20
METAR FOR VNKT
ADDS - METARS form results

(0349 UTC 13 January 2023)
Data provider http://aviationweather.gov/metar/data/
 
METAR text: VNKT 130330Z 00000KT 5000 BR FEW015 09/05 Q1019 NOSIG
Conditions at: VNKT (KATHMANDU INTL A, NP) observed 0330 UTC 13 January 2023
Temperature: 9.0°C (48°F)
Dewpoint: 5.0°C (41°F) [RH = 76%]
Pressure (altimeter): 30.09 inches Hg (1019.0 mb)
Winds: calm
Visibility: 3 miles ( 5 km)
Ceiling: at least 12,000 feet AGL
Clouds: few clouds at 1500 feet AGL
Weather: BR  (mist)

METAR text: VNKT 130300Z 00000KT 4000 BR FEW015 08/05 Q1019 NOSIG
Conditions at: VNKT (KATHMANDU INTL A, NP) observed 0300 UTC 13 January 2023
Temperature: 8.0°C (46°F)
Dewpoint: 5.0°C (41°F) [RH = 81%]
Pressure (altimeter): 30.09 inches Hg (1019.0 mb)
Winds: calm
Visibility: 2.49 miles (4.01 km)
Ceiling: at least 12,000 feet AGL
Clouds: few clouds at 1500 feet AGL
Weather: BR  (mist)

Forecast for: VNKT (KATHMANDU INTL A, NP)
Text: TAF VNKT 122300Z 1300/1324 00000KT 7000 FEW015 05/04
Forecast period: 0000 to 0400 UTC 13 January 2023
Forecast type: FROM: standard forecast or significant change
Winds: calm
Visibility: 4 miles (7 km)
Ceiling: at least 12,000 feet AGL
Clouds: few clouds at 1500 feet AGL
Weather: no significant weather forecast for this period
Text: BECMG 1304/1305 14003KT 5000 HZ FEW015
Forecast period: 0400 to 0800 UTC 13 January 2023
Forecast type: BECOMING: Conditions expected to become as follows by 0500 UTC 13 January 2023
Winds: from the SE (140 degrees) at 3 MPH (3 knots; 1.5 m/s)
Visibility: 3 miles (5 km)
Ceiling: at least 12,000 feet AGL
Clouds: few clouds at 1500 feet AGL
Weather: HZ  (haze)
Text: BECMG 1308/1310 22009KT 8000 FEW020
Forecast period: 0800 to 1400 UTC 13 January 2023
Forecast type: BECOMING: Conditions expected to become as follows by 1000 UTC 13 January 2023
Winds: from the SW (220 degrees) at 10 MPH (9 knots; 4.6 m/s)
Visibility: 5 miles (8 km)
Ceiling: at least 12,000 feet AGL
Clouds: few clouds at 2000 feet AGL
Weather: HZ  (haze)
Text: BECMG 1314/1316 14003KT 7000 FEW015
Forecast period: 1400 UTC 13 January 2023 to 0000 UTC 14 January 2023
Forecast type: BECOMING: Conditions expected to become as follows by 1600 UTC 13 January 2023
Winds: from the SE (140 degrees) at 3 MPH (3 knots; 1.5 m/s)
Visibility: 4 miles (7 km)
Ceiling: at least 12,000 feet AGL
Clouds: few clouds at 1500 feet AGL
Weather: HZ  (haze)